sensor_id;sensor_type;location;lat;lon;timestamp;pressure;altitude;pressure_sealevel;temperature;humidity
19600;BME280;9947;57.722;12.012;2022-09-04T00:00:56;102075.63;;;10.98;75.12
19600;BME280;9947;57.722;12.012;2022-09-04T00:03:35;102065.88;;;10.96;75.00
19600;BME280;9947;57.722;12.012;2022-09-04T00:06:09;102070.75;;;11.05;75.42
19600;BME280;9947;57.722;12.012;2022-09-04T00:08:47;102066.97;;;11.07;76.12
19600;BME280;9947;57.722;12.012;2022-09-04T00:11:28;102068.13;;;11.03;76.05
19600;BME280;9947;57.722;12.012;2022-09-04T00:14:00;102065.88;;;10.96;75.43
19600;BME280;9947;57.722;12.012;2022-09-04T00:16:33;102076.16;;;10.89;75.10
19600;BME280;9947;57.722;12.012;2022-09-04T00:19:09;102063.84;;;10.84;74.43
19600;BME280;9947;57.722;12.012;2022-09-04T00:21:46;102068.47;;;10.81;74.65
19600;BME280;9947;57.722;12.012;2022-09-04T00:24:18;102076.59;;;10.81;74.40
19600;BME280;9947;57.722;12.012;2022-09-04T00:26:51;102070.75;;;10.73;74.46
19600;BME280;9947;57.722;12.012;2022-09-04T00:29:30;102069.09;;;10.71;74.09
19600;BME280;9947;57.722;12.012;2022-09-04T00:32:01;102070.75;;;10.73;74.24
19600;BME280;9947;57.722;12.012;2022-09-04T00:34:49;102071.78;;;10.71;74.32
19600;BME280;9947;57.722;12.012;2022-09-04T00:37:22;102073.44;;;10.73;74.26
19600;BME280;9947;57.722;12.012;2022-09-04T00:39:56;102075.38;;;10.71;74.74
19600;BME280;9947;57.722;12.012;2022-09-04T00:42:39;102082.69;;;10.69;74.74
19600;BME280;9947;57.722;12.012;2022-09-04T00:45:21;102079.53;;;10.61;73.90
19600;BME280;9947;57.722;12.012;2022-09-04T00:48:21;102085.44;;;10.52;73.73
19600;BME280;9947;57.722;12.012;2022-09-04T00:51:14;102079.44;;;10.47;72.88
19600;BME280;9947;57.722;12.012;2022-09-04T00:54:03;102085.97;;;10.43;72.69
19600;BME280;9947;57.722;12.012;2022-09-04T00:57:02;102090.50;;;10.42;72.91
19600;BME280;9947;57.722;12.012;2022-09-04T00:59:59;102096.53;;;10.47;72.75
19600;BME280;9947;57.722;12.012;2022-09-04T01:02:36;102087.38;;;10.50;73.05
19600;BME280;9947;57.722;12.012;2022-09-04T01:05:17;102088.50;;;10.62;74.14
19600;BME280;9947;57.722;12.012;2022-09-04T01:07:53;102089.47;;;10.61;74.14
19600;BME280;9947;57.722;12.012;2022-09-04T01:10:34;102092.16;;;10.61;74.65
19600;BME280;9947;57.722;12.012;2022-09-04T01:13:10;102091.31;;;10.60;74.53
19600;BME280;9947;57.722;12.012;2022-09-04T01:15:43;102091.66;;;10.54;74.40
19600;BME280;9947;57.722;12.012;2022-09-04T01:18:15;102096.44;;;10.49;74.45
19600;BME280;9947;57.722;12.012;2022-09-04T01:20:55;102091.91;;;10.49;74.29
19600;BME280;9947;57.722;12.012;2022-09-04T01:23:55;102090.84;;;10.52;74.17
19600;BME280;9947;57.722;12.012;2022-09-04T01:26:31;102091.03;;;10.65;75.16
19600;BME280;9947;57.722;12.012;2022-09-04T01:29:14;102091.50;;;10.73;76.30
19600;BME280;9947;57.722;12.012;2022-09-04T01:31:49;102096.47;;;10.80;77.62
19600;BME280;9947;57.722;12.012;2022-09-04T01:34:27;102103.28;;;10.88;78.84
19600;BME280;9947;57.722;12.012;2022-09-04T01:37:06;102101.03;;;10.96;79.94
19600;BME280;9947;57.722;12.012;2022-09-04T01:39:38;102100.78;;;11.00;80.66
19600;BME280;9947;57.722;12.012;2022-09-04T01:42:14;102099.53;;;11.06;81.47
19600;BME280;9947;57.722;12.012;2022-09-04T01:44:43;102108.44;;;11.08;81.76
19600;BME280;9947;57.722;12.012;2022-09-04T01:47:15;102103.22;;;11.05;82.25
19600;BME280;9947;57.722;12.012;2022-09-04T01:49:52;102110.19;;;11.09;82.95
19600;BME280;9947;57.722;12.012;2022-09-04T01:52:32;102105.38;;;11.14;83.96
19600;BME280;9947;57.722;12.012;2022-09-04T01:55:10;102108.72;;;11.19;85.36
19600;BME280;9947;57.722;12.012;2022-09-04T01:57:54;102115.00;;;11.20;86.47
19600;BME280;9947;57.722;12.012;2022-09-04T02:00:24;102119.88;;;11.13;84.79
19600;BME280;9947;57.722;12.012;2022-09-04T02:02:57;102121.72;;;11.12;85.31
19600;BME280;9947;57.722;12.012;2022-09-04T02:05:31;102125.47;;;11.10;85.45
19600;BME280;9947;57.722;12.012;2022-09-04T02:08:15;102118.91;;;11.14;86.25
19600;BME280;9947;57.722;12.012;2022-09-04T02:10:51;102113.59;;;11.12;85.62
19600;BME280;9947;57.722;12.012;2022-09-04T02:13:29;102113.19;;;11.20;87.71
19600;BME280;9947;57.722;12.012;2022-09-04T02:16:11;102115.50;;;11.10;87.17
19600;BME280;9947;57.722;12.012;2022-09-04T02:18:49;102119.78;;;11.15;87.35
19600;BME280;9947;57.722;12.012;2022-09-04T02:21:26;102120.94;;;11.10;86.32
19600;BME280;9947;57.722;12.012;2022-09-04T02:24:04;102119.53;;;11.03;86.51
19600;BME280;9947;57.722;12.012;2022-09-04T02:26:39;102121.63;;;10.98;86.14
19600;BME280;9947;57.722;12.012;2022-09-04T02:29:14;102120.84;;;10.96;86.53
19600;BME280;9947;57.722;12.012;2022-09-04T02:31:52;102125.53;;;10.93;86.22
19600;BME280;9947;57.722;12.012;2022-09-04T02:34:29;102117.09;;;10.99;86.52
19600;BME280;9947;57.722;12.012;2022-09-04T02:37:06;102117.41;;;10.93;86.82
19600;BME280;9947;57.722;12.012;2022-09-04T02:39:44;102115.75;;;10.90;86.56
19600;BME280;9947;57.722;12.012;2022-09-04T02:42:22;102115.34;;;10.98;87.23
19600;BME280;9947;57.722;12.012;2022-09-04T02:45:00;102113.44;;;11.00;88.10
19600;BME280;9947;57.722;12.012;2022-09-04T02:47:43;102117.53;;;11.07;88.86
19600;BME280;9947;57.722;12.012;2022-09-04T02:50:20;102114.91;;;11.05;89.36
19600;BME280;9947;57.722;12.012;2022-09-04T02:53:03;102119.81;;;10.99;89.30
19600;BME280;9947;57.722;12.012;2022-09-04T02:58:42;102114.66;;;10.94;87.34
19600;BME280;9947;57.722;12.012;2022-09-04T03:01:18;102119.19;;;10.94;87.58
19600;BME280;9947;57.722;12.012;2022-09-04T03:03:55;102123.28;;;11.01;88.88
19600;BME280;9947;57.722;12.012;2022-09-04T03:06:38;102122.59;;;10.97;89.18
19600;BME280;9947;57.722;12.012;2022-09-04T03:09:11;102120.13;;;10.93;87.53
19600;BME280;9947;57.722;12.012;2022-09-04T03:11:44;102123.72;;;10.93;86.49
19600;BME280;9947;57.722;12.012;2022-09-04T03:14:21;102124.06;;;10.87;85.62
19600;BME280;9947;57.722;12.012;2022-09-04T03:16:56;102120.03;;;10.78;85.41
19600;BME280;9947;57.722;12.012;2022-09-04T03:19:30;102122.91;;;10.75;85.82
19600;BME280;9947;57.722;12.012;2022-09-04T03:22:06;102124.56;;;10.78;85.44
19600;BME280;9947;57.722;12.012;2022-09-04T03:24:54;102121.34;;;10.87;87.60
19600;BME280;9947;57.722;12.012;2022-09-04T03:27:23;102118.72;;;10.86;87.29
19600;BME280;9947;57.722;12.012;2022-09-04T03:29:56;102123.88;;;10.90;87.65
19600;BME280;9947;57.722;12.012;2022-09-04T03:32:34;102131.03;;;10.91;87.22
19600;BME280;9947;57.722;12.012;2022-09-04T03:35:09;102134.53;;;10.77;86.06
19600;BME280;9947;57.722;12.012;2022-09-04T03:37:55;102129.47;;;10.71;85.39
19600;BME280;9947;57.722;12.012;2022-09-04T03:40:34;102132.25;;;10.70;84.94
19600;BME280;9947;57.722;12.012;2022-09-04T03:46:17;102132.91;;;10.58;82.85
19600;BME280;9947;57.722;12.012;2022-09-04T03:49:05;102124.19;;;10.53;82.69
19600;BME280;9947;57.722;12.012;2022-09-04T03:51:40;102139.63;;;10.50;81.90
19600;BME280;9947;57.722;12.012;2022-09-04T03:54:20;102135.41;;;10.45;81.03
19600;BME280;9947;57.722;12.012;2022-09-04T03:57:00;102135.88;;;10.36;79.95
19600;BME280;9947;57.722;12.012;2022-09-04T03:59:43;102138.94;;;10.30;79.25
19600;BME280;9947;57.722;12.012;2022-09-04T04:02:22;102150.00;;;10.25;78.83
19600;BME280;9947;57.722;12.012;2022-09-04T04:05:05;102145.63;;;10.23;78.66
19600;BME280;9947;57.722;12.012;2022-09-04T04:07:42;102145.72;;;10.21;78.37
19600;BME280;9947;57.722;12.012;2022-09-04T04:10:21;102149.50;;;10.17;78.61
19600;BME280;9947;57.722;12.012;2022-09-04T04:13:30;102149.09;;;10.07;77.65
19600;BME280;9947;57.722;12.012;2022-09-04T04:16:27;102155.44;;;10.06;77.32
19600;BME280;9947;57.722;12.012;2022-09-04T04:19:15;102157.50;;;10.01;76.41
19600;BME280;9947;57.722;12.012;2022-09-04T04:21:57;102157.75;;;9.97;76.30
19600;BME280;9947;57.722;12.012;2022-09-04T04:24:47;102160.69;;;9.92;75.74
19600;BME280;9947;57.722;12.012;2022-09-04T04:27:30;102166.09;;;9.92;75.58
19600;BME280;9947;57.722;12.012;2022-09-04T04:30:05;102168.97;;;9.89;75.44
19600;BME280;9947;57.722;12.012;2022-09-04T04:32:56;102165.44;;;9.87;75.09
19600;BME280;9947;57.722;12.012;2022-09-04T04:35:34;102167.19;;;9.88;74.99
19600;BME280;9947;57.722;12.012;2022-09-04T04:38:40;102175.16;;;9.91;74.94
19600;BME280;9947;57.722;12.012;2022-09-04T04:41:27;102163.31;;;9.94;74.89
19600;BME280;9947;57.722;12.012;2022-09-04T04:44:31;102175.88;;;9.95;75.20
19600;BME280;9947;57.722;12.012;2022-09-04T04:47:30;102182.31;;;9.92;75.70
19600;BME280;9947;57.722;12.012;2022-09-04T04:50:11;102187.56;;;9.95;75.41
19600;BME280;9947;57.722;12.012;2022-09-04T04:52:47;102174.69;;;10.00;75.75
19600;BME280;9947;57.722;12.012;2022-09-04T04:55:31;102188.09;;;10.02;76.16
19600;BME280;9947;57.722;12.012;2022-09-04T04:58:26;102190.81;;;10.02;76.35
19600;BME280;9947;57.722;12.012;2022-09-04T05:01:02;102198.59;;;10.08;77.83
19600;BME280;9947;57.722;12.012;2022-09-04T05:03:41;102188.34;;;10.14;78.58
19600;BME280;9947;57.722;12.012;2022-09-04T05:06:19;102191.66;;;10.21;78.29
19600;BME280;9947;57.722;12.012;2022-09-04T05:09:00;102199.50;;;10.26;79.24
19600;BME280;9947;57.722;12.012;2022-09-04T05:11:52;102202.75;;;10.32;80.23
19600;BME280;9947;57.722;12.012;2022-09-04T05:14:37;102208.56;;;10.42;80.37
19600;BME280;9947;57.722;12.012;2022-09-04T05:17:16;102215.91;;;11.06;83.10
19600;BME280;9947;57.722;12.012;2022-09-04T05:20:25;102208.41;;;11.42;89.03
19600;BME280;9947;57.722;12.012;2022-09-04T05:23:01;102214.16;;;11.05;88.18
19600;BME280;9947;57.722;12.012;2022-09-04T05:25:42;102222.66;;;10.81;87.10
19600;BME280;9947;57.722;12.012;2022-09-04T05:28:32;102215.66;;;10.77;86.36
19600;BME280;9947;57.722;12.012;2022-09-04T05:31:13;102220.09;;;10.96;86.54
19600;BME280;9947;57.722;12.012;2022-09-04T05:33:52;102222.16;;;10.91;86.37
19600;BME280;9947;57.722;12.012;2022-09-04T05:36:28;102226.59;;;11.25;87.74
19600;BME280;9947;57.722;12.012;2022-09-04T05:39:06;102231.84;;;11.28;88.77
19600;BME280;9947;57.722;12.012;2022-09-04T05:41:49;102239.25;;;11.40;89.25
19600;BME280;9947;57.722;12.012;2022-09-04T05:44:43;102235.50;;;11.42;91.26
19600;BME280;9947;57.722;12.012;2022-09-04T05:47:24;102237.72;;;11.52;91.35
19600;BME280;9947;57.722;12.012;2022-09-04T05:50:16;102239.19;;;11.57;92.08
19600;BME280;9947;57.722;12.012;2022-09-04T05:53:03;102246.44;;;11.72;92.36
19600;BME280;9947;57.722;12.012;2022-09-04T05:55:52;102242.13;;;11.68;92.67
19600;BME280;9947;57.722;12.012;2022-09-04T05:58:41;102251.34;;;11.97;94.23
19600;BME280;9947;57.722;12.012;2022-09-04T06:01:21;102233.97;;;13.04;100.00
19600;BME280;9947;57.722;12.012;2022-09-04T06:04:08;102240.94;;;13.22;100.00
19600;BME280;9947;57.722;12.012;2022-09-04T06:06:46;102245.47;;;13.50;100.00
19600;BME280;9947;57.722;12.012;2022-09-04T06:09:35;102243.47;;;13.40;100.00
19600;BME280;9947;57.722;12.012;2022-09-04T06:12:21;102255.34;;;13.66;100.00
19600;BME280;9947;57.722;12.012;2022-09-04T06:15:05;102241.00;;;13.64;100.00
19600;BME280;9947;57.722;12.012;2022-09-04T06:17:54;102246.88;;;13.84;100.00
19600;BME280;9947;57.722;12.012;2022-09-04T06:20:36;102252.19;;;14.13;100.00
19600;BME280;9947;57.722;12.012;2022-09-04T06:23:26;102244.81;;;14.15;100.00
19600;BME280;9947;57.722;12.012;2022-09-04T06:26:18;102250.03;;;14.18;100.00
19600;BME280;9947;57.722;12.012;2022-09-04T06:29:05;102250.13;;;14.16;100.00
19600;BME280;9947;57.722;12.012;2022-09-04T06:31:52;102262.88;;;14.29;100.00
19600;BME280;9947;57.722;12.012;2022-09-04T06:34:35;102257.00;;;14.22;100.00
19600;BME280;9947;57.722;12.012;2022-09-04T06:37:15;102255.69;;;14.28;100.00
19600;BME280;9947;57.722;12.012;2022-09-04T06:39:56;102260.75;;;14.34;100.00
19600;BME280;9947;57.722;12.012;2022-09-04T06:42:32;102261.25;;;14.26;100.00
19600;BME280;9947;57.722;12.012;2022-09-04T06:45:17;102254.63;;;14.30;100.00
19600;BME280;9947;57.722;12.012;2022-09-04T07:02:51;102259.41;;;14.79;100.00
19600;BME280;9947;57.722;12.012;2022-09-04T07:05:38;102262.47;;;15.00;100.00
19600;BME280;9947;57.722;12.012;2022-09-04T07:08:15;102251.38;;;15.16;100.00
19600;BME280;9947;57.722;12.012;2022-09-04T07:10:48;102260.31;;;15.18;100.00
19600;BME280;9947;57.722;12.012;2022-09-04T07:13:31;102255.69;;;15.31;100.00
19600;BME280;9947;57.722;12.012;2022-09-04T07:16:17;102270.72;;;15.49;100.00
19600;BME280;9947;57.722;12.012;2022-09-04T07:19:15;102270.75;;;15.86;100.00
19600;BME280;9947;57.722;12.012;2022-09-04T07:21:51;102269.38;;;16.04;100.00
19600;BME280;9947;57.722;12.012;2022-09-04T07:27:41;102280.22;;;15.93;100.00
19600;BME280;9947;57.722;12.012;2022-09-04T07:30:17;102288.81;;;15.99;100.00
19600;BME280;9947;57.722;12.012;2022-09-04T07:33:11;102285.25;;;15.86;100.00
19600;BME280;9947;57.722;12.012;2022-09-04T07:36:19;102286.25;;;16.09;100.00
19600;BME280;9947;57.722;12.012;2022-09-04T07:39:18;102293.91;;;16.04;100.00
19600;BME280;9947;57.722;12.012;2022-09-04T07:42:09;102298.63;;;16.02;100.00
19600;BME280;9947;57.722;12.012;2022-09-04T07:44:48;102298.84;;;15.99;100.00
19600;BME280;9947;57.722;12.012;2022-09-04T07:47:30;102297.88;;;16.00;100.00
19600;BME280;9947;57.722;12.012;2022-09-04T07:50:08;102312.13;;;16.16;100.00
19600;BME280;9947;57.722;12.012;2022-09-04T07:53:06;102308.91;;;16.46;100.00
19600;BME280;9947;57.722;12.012;2022-09-04T07:55:47;102321.56;;;16.71;100.00
19600;BME280;9947;57.722;12.012;2022-09-04T08:01:46;102314.19;;;16.95;98.93
19600;BME280;9947;57.722;12.012;2022-09-04T08:04:28;102321.91;;;17.13;98.07
19600;BME280;9947;57.722;12.012;2022-09-04T08:07:05;102318.09;;;17.26;97.56
19600;BME280;9947;57.722;12.012;2022-09-04T08:09:47;102326.66;;;17.22;97.01
19600;BME280;9947;57.722;12.012;2022-09-04T08:12:45;102329.59;;;16.97;97.35
19600;BME280;9947;57.722;12.012;2022-09-04T08:15:18;102336.38;;;16.91;96.69
19600;BME280;9947;57.722;12.012;2022-09-04T08:18:07;102341.56;;;17.18;96.62
19600;BME280;9947;57.722;12.012;2022-09-04T08:20:43;102342.13;;;16.99;96.63
19600;BME280;9947;57.722;12.012;2022-09-04T08:23:31;102337.03;;;16.94;97.58
19600;BME280;9947;57.722;12.012;2022-09-04T08:26:08;102336.56;;;17.12;96.92
19600;BME280;9947;57.722;12.012;2022-09-04T08:28:50;102337.97;;;17.29;96.52
19600;BME280;9947;57.722;12.012;2022-09-04T08:31:38;102342.22;;;17.44;96.64
19600;BME280;9947;57.722;12.012;2022-09-04T08:34:42;102340.31;;;16.76;96.61
19600;BME280;9947;57.722;12.012;2022-09-04T08:37:38;102350.38;;;16.75;97.41
19600;BME280;9947;57.722;12.012;2022-09-04T08:57:05;102340.03;;;17.03;93.22
19600;BME280;9947;57.722;12.012;2022-09-04T09:00:41;102345.25;;;16.94;90.14
19600;BME280;9947;57.722;12.012;2022-09-04T09:17:10;102331.03;;;17.47;93.62
19600;BME280;9947;57.722;12.012;2022-09-04T09:19:45;102340.81;;;17.38;92.46
19600;BME280;9947;57.722;12.012;2022-09-04T09:22:31;102332.53;;;17.51;91.68
19600;BME280;9947;57.722;12.012;2022-09-04T09:25:16;102335.00;;;17.54;90.64
19600;BME280;9947;57.722;12.012;2022-09-04T09:28:07;102322.72;;;17.48;89.10
19600;BME280;9947;57.722;12.012;2022-09-04T09:40:33;102333.75;;;17.58;87.17
19600;BME280;9947;57.722;12.012;2022-09-04T09:43:41;102331.41;;;17.53;89.74
19600;BME280;9947;57.722;12.012;2022-09-04T09:49:40;102329.66;;;17.52;89.17
19600;BME280;9947;57.722;12.012;2022-09-04T09:55:49;102320.97;;;17.58;86.32
19600;BME280;9947;57.722;12.012;2022-09-04T10:01:49;102326.44;;;17.47;88.29
19600;BME280;9947;57.722;12.012;2022-09-04T10:10:40;102324.72;;;17.80;88.86
19600;BME280;9947;57.722;12.012;2022-09-04T10:16:41;102324.72;;;17.80;88.56
19600;BME280;9947;57.722;12.012;2022-09-04T10:19:50;102323.47;;;17.73;88.23
19600;BME280;9947;57.722;12.012;2022-09-04T10:22:54;102324.84;;;17.78;86.26
19600;BME280;9947;57.722;12.012;2022-09-04T10:25:43;102326.06;;;17.85;85.86
19600;BME280;9947;57.722;12.012;2022-09-04T10:28:21;102319.09;;;17.93;85.41
19600;BME280;9947;57.722;12.012;2022-09-04T10:31:18;102321.06;;;18.02;85.23
19600;BME280;9947;57.722;12.012;2022-09-04T10:34:12;102325.28;;;17.95;83.72
19600;BME280;9947;57.722;12.012;2022-09-04T10:36:58;102319.22;;;18.02;82.72
19600;BME280;9947;57.722;12.012;2022-09-04T10:39:38;102318.59;;;17.99;81.01
19600;BME280;9947;57.722;12.012;2022-09-04T10:42:34;102317.84;;;17.63;77.97
19600;BME280;9947;57.722;12.012;2022-09-04T10:45:16;102319.72;;;17.51;78.76
19600;BME280;9947;57.722;12.012;2022-09-04T10:48:12;102322.22;;;17.54;80.76
19600;BME280;9947;57.722;12.012;2022-09-04T10:51:01;102314.91;;;17.77;80.08
19600;BME280;9947;57.722;12.012;2022-09-04T10:56:52;102314.13;;;17.98;79.68
19600;BME280;9947;57.722;12.012;2022-09-04T10:59:36;102321.69;;;18.05;76.90
19600;BME280;9947;57.722;12.012;2022-09-04T11:05:18;102316.75;;;18.31;76.41
19600;BME280;9947;57.722;12.012;2022-09-04T11:08:16;102308.94;;;18.27;77.24
19600;BME280;9947;57.722;12.012;2022-09-04T11:11:00;102314.03;;;18.31;74.54
19600;BME280;9947;57.722;12.012;2022-09-04T11:14:03;102323.78;;;18.45;77.62
19600;BME280;9947;57.722;12.012;2022-09-04T11:17:08;102320.84;;;18.37;74.35
19600;BME280;9947;57.722;12.012;2022-09-04T11:29:17;102322.25;;;18.63;74.03
19600;BME280;9947;57.722;12.012;2022-09-04T11:32:00;102319.38;;;18.65;72.19
19600;BME280;9947;57.722;12.012;2022-09-04T11:34:46;102318.75;;;18.61;71.07
19600;BME280;9947;57.722;12.012;2022-09-04T11:44:17;102321.78;;;18.47;73.03
19600;BME280;9947;57.722;12.012;2022-09-04T11:50:06;102323.03;;;18.54;74.84
19600;BME280;9947;57.722;12.012;2022-09-04T11:58:56;102317.97;;;19.02;71.05
19600;BME280;9947;57.722;12.012;2022-09-04T12:04:56;102314.94;;;19.26;68.92
19600;BME280;9947;57.722;12.012;2022-09-04T12:07:38;102325.03;;;19.05;67.28
19600;BME280;9947;57.722;12.012;2022-09-04T12:10:42;102319.47;;;19.16;68.50
19600;BME280;9947;57.722;12.012;2022-09-04T12:13:26;102312.66;;;19.31;67.51
19600;BME280;9947;57.722;12.012;2022-09-04T12:16:06;102308.91;;;19.32;66.29
19600;BME280;9947;57.722;12.012;2022-09-04T12:22:02;102307.56;;;19.27;64.31
19600;BME280;9947;57.722;12.012;2022-09-04T12:24:54;102314.88;;;19.47;64.35
19600;BME280;9947;57.722;12.012;2022-09-04T12:30:38;102307.47;;;20.09;65.97
19600;BME280;9947;57.722;12.012;2022-09-04T12:33:45;102315.00;;;20.26;63.38
19600;BME280;9947;57.722;12.012;2022-09-04T12:36:54;102306.63;;;20.27;57.50
19600;BME280;9947;57.722;12.012;2022-09-04T12:42:30;102312.25;;;20.07;58.21
19600;BME280;9947;57.722;12.012;2022-09-04T12:45:09;102307.78;;;20.25;57.52
19600;BME280;9947;57.722;12.012;2022-09-04T12:47:46;102309.09;;;20.30;56.71
19600;BME280;9947;57.722;12.012;2022-09-04T12:50:24;102305.75;;;20.27;56.77
19600;BME280;9947;57.722;12.012;2022-09-04T12:53:12;102313.31;;;20.44;56.63
19600;BME280;9947;57.722;12.012;2022-09-04T12:55:54;102307.34;;;20.20;56.79
19600;BME280;9947;57.722;12.012;2022-09-04T12:58:37;102313.88;;;20.38;57.57
19600;BME280;9947;57.722;12.012;2022-09-04T13:01:14;102315.59;;;20.39;56.17
19600;BME280;9947;57.722;12.012;2022-09-04T13:03:50;102310.97;;;20.30;55.82
19600;BME280;9947;57.722;12.012;2022-09-04T13:06:30;102305.19;;;20.33;56.34
19600;BME280;9947;57.722;12.012;2022-09-04T13:09:09;102307.91;;;20.14;55.80
19600;BME280;9947;57.722;12.012;2022-09-04T13:11:47;102312.97;;;20.28;57.56
19600;BME280;9947;57.722;12.012;2022-09-04T13:14:27;102315.28;;;20.23;56.42
19600;BME280;9947;57.722;12.012;2022-09-04T13:17:06;102315.91;;;20.55;57.06
19600;BME280;9947;57.722;12.012;2022-09-04T13:19:42;102309.66;;;20.24;53.72
19600;BME280;9947;57.722;12.012;2022-09-04T13:22:24;102308.72;;;19.85;54.25
19600;BME280;9947;57.722;12.012;2022-09-04T13:25:03;102306.06;;;19.74;55.27
19600;BME280;9947;57.722;12.012;2022-09-04T13:27:46;102310.94;;;19.61;55.42
19600;BME280;9947;57.722;12.012;2022-09-04T13:30:22;102302.25;;;19.56;55.84
19600;BME280;9947;57.722;12.012;2022-09-04T13:33:05;102309.00;;;19.52;54.43
19600;BME280;9947;57.722;12.012;2022-09-04T13:36:01;102311.34;;;19.56;54.41
19600;BME280;9947;57.722;12.012;2022-09-04T13:41:56;102307.00;;;19.54;55.96
19600;BME280;9947;57.722;12.012;2022-09-04T13:47:22;102302.31;;;19.75;54.06
19600;BME280;9947;57.722;12.012;2022-09-04T13:49:53;102302.34;;;19.85;54.90
19600;BME280;9947;57.722;12.012;2022-09-04T13:52:28;102301.94;;;19.89;54.57
19600;BME280;9947;57.722;12.012;2022-09-04T13:55:02;102303.66;;;19.90;55.63
19600;BME280;9947;57.722;12.012;2022-09-04T13:57:38;102297.16;;;19.91;57.33
19600;BME280;9947;57.722;12.012;2022-09-04T14:00:16;102303.13;;;20.06;56.68
19600;BME280;9947;57.722;12.012;2022-09-04T14:02:44;102298.09;;;20.11;55.91
19600;BME280;9947;57.722;12.012;2022-09-04T14:05:15;102303.00;;;20.17;55.44
19600;BME280;9947;57.722;12.012;2022-09-04T14:07:55;102300.53;;;20.14;54.13
19600;BME280;9947;57.722;12.012;2022-09-04T14:10:36;102300.03;;;20.59;54.65
19600;BME280;9947;57.722;12.012;2022-09-04T14:13:17;102297.25;;;20.78;52.31
19600;BME280;9947;57.722;12.012;2022-09-04T14:16:09;102291.84;;;21.06;50.79
19600;BME280;9947;57.722;12.012;2022-09-04T14:18:50;102291.06;;;20.67;50.77
19600;BME280;9947;57.722;12.012;2022-09-04T14:21:28;102301.47;;;20.82;52.04
19600;BME280;9947;57.722;12.012;2022-09-04T14:24:02;102300.91;;;20.59;53.87
19600;BME280;9947;57.722;12.012;2022-09-04T14:26:38;102293.34;;;20.52;53.34
19600;BME280;9947;57.722;12.012;2022-09-04T14:29:15;102301.75;;;20.41;54.84
19600;BME280;9947;57.722;12.012;2022-09-04T14:31:54;102298.81;;;20.23;57.05
19600;BME280;9947;57.722;12.012;2022-09-04T14:34:39;102299.81;;;20.22;54.13
19600;BME280;9947;57.722;12.012;2022-09-04T14:37:19;102294.91;;;20.16;54.46
19600;BME280;9947;57.722;12.012;2022-09-04T14:42:36;102294.03;;;20.06;53.14
19600;BME280;9947;57.722;12.012;2022-09-04T14:45:17;102299.09;;;20.10;53.05
19600;BME280;9947;57.722;12.012;2022-09-04T14:47:56;102303.53;;;19.92;54.63
19600;BME280;9947;57.722;12.012;2022-09-04T14:50:29;102290.09;;;19.89;54.57
19600;BME280;9947;57.722;12.012;2022-09-04T14:53:01;102289.06;;;19.90;55.48
19600;BME280;9947;57.722;12.012;2022-09-04T14:55:30;102295.81;;;19.76;55.85
19600;BME280;9947;57.722;12.012;2022-09-04T14:58:03;102295.47;;;19.60;57.10
19600;BME280;9947;57.722;12.012;2022-09-04T15:00:52;102297.06;;;19.62;55.75
19600;BME280;9947;57.722;12.012;2022-09-04T15:03:25;102292.53;;;19.52;54.74
19600;BME280;9947;57.722;12.012;2022-09-04T15:05:57;102296.66;;;19.36;55.54
19600;BME280;9947;57.722;12.012;2022-09-04T15:08:27;102301.25;;;19.36;56.35
19600;BME280;9947;57.722;12.012;2022-09-04T15:10:59;102291.22;;;19.25;56.17
19600;BME280;9947;57.722;12.012;2022-09-04T15:13:38;102302.19;;;19.25;56.20
19600;BME280;9947;57.722;12.012;2022-09-04T15:16:15;102294.34;;;19.11;59.14
19600;BME280;9947;57.722;12.012;2022-09-04T15:18:54;102294.75;;;19.06;58.59
19600;BME280;9947;57.722;12.012;2022-09-04T15:21:28;102291.06;;;18.96;59.32
19600;BME280;9947;57.722;12.012;2022-09-04T15:24:11;102294.22;;;18.92;57.64
19600;BME280;9947;57.722;12.012;2022-09-04T15:26:42;102298.50;;;18.85;58.86
19600;BME280;9947;57.722;12.012;2022-09-04T15:29:17;102288.94;;;18.79;59.45
19600;BME280;9947;57.722;12.012;2022-09-04T15:31:47;102290.22;;;18.75;59.05
19600;BME280;9947;57.722;12.012;2022-09-04T15:34:26;102287.41;;;18.65;60.74
19600;BME280;9947;57.722;12.012;2022-09-04T15:36:53;102285.78;;;18.63;60.25
19600;BME280;9947;57.722;12.012;2022-09-04T15:39:42;102297.84;;;18.60;60.61
19600;BME280;9947;57.722;12.012;2022-09-04T15:42:31;102288.44;;;18.53;62.46
19600;BME280;9947;57.722;12.012;2022-09-04T15:45:04;102287.72;;;18.40;64.14
19600;BME280;9947;57.722;12.012;2022-09-04T15:48:02;102290.25;;;18.32;65.08
19600;BME280;9947;57.722;12.012;2022-09-04T15:50:35;102286.91;;;18.28;66.60
19600;BME280;9947;57.722;12.012;2022-09-04T15:53:13;102300.00;;;18.25;66.53
19600;BME280;9947;57.722;12.012;2022-09-04T15:55:48;102289.66;;;18.17;67.06
19600;BME280;9947;57.722;12.012;2022-09-04T15:58:33;102287.66;;;18.19;67.28
19600;BME280;9947;57.722;12.012;2022-09-04T16:01:10;102289.94;;;18.14;68.43
19600;BME280;9947;57.722;12.012;2022-09-04T16:03:55;102287.31;;;18.12;69.80
19600;BME280;9947;57.722;12.012;2022-09-04T16:06:29;102297.66;;;18.09;69.12
19600;BME280;9947;57.722;12.012;2022-09-04T16:09:01;102293.53;;;18.14;69.10
19600;BME280;9947;57.722;12.012;2022-09-04T16:11:33;102291.31;;;18.08;69.96
19600;BME280;9947;57.722;12.012;2022-09-04T16:14:04;102294.31;;;18.05;70.08
19600;BME280;9947;57.722;12.012;2022-09-04T16:16:39;102296.19;;;18.05;68.87
19600;BME280;9947;57.722;12.012;2022-09-04T16:19:24;102296.59;;;18.00;70.17
19600;BME280;9947;57.722;12.012;2022-09-04T16:21:59;102299.94;;;17.93;71.85
19600;BME280;9947;57.722;12.012;2022-09-04T16:24:33;102297.59;;;17.88;72.74
19600;BME280;9947;57.722;12.012;2022-09-04T16:27:05;102295.22;;;17.83;73.74